createdAt,value
2023-01-19T00:01:47.556Z,13.90
2023-01-19T00:04:14.808Z,13.90
2023-01-19T00:06:41.961Z,13.90
2023-01-19T00:09:09.287Z,13.90
2023-01-19T00:11:36.781Z,13.90
2023-01-19T00:14:04.679Z,13.90
2023-01-19T00:16:32.034Z,13.80
2023-01-19T00:19:00.783Z,13.80
2023-01-19T00:21:28.083Z,13.80
2023-01-19T00:23:57.683Z,13.80
2023-01-19T00:26:24.872Z,13.80
2023-01-19T00:28:53.120Z,13.80
2023-01-19T00:31:22.193Z,13.80
2023-01-19T00:33:51.714Z,13.70
2023-01-19T00:36:19.439Z,13.70
2023-01-19T00:38:46.601Z,13.70
2023-01-19T00:41:13.812Z,13.70
2023-01-19T00:43:41.236Z,13.80
2023-01-19T00:46:08.604Z,13.90
2023-01-19T00:48:36.155Z,13.90
2023-01-19T00:51:03.519Z,13.90
2023-01-19T00:53:32.647Z,13.90
2023-01-19T00:56:01.638Z,13.90
2023-01-19T00:58:29.374Z,13.90
2023-01-19T01:01:03.603Z,13.90
2023-01-19T01:03:31.063Z,13.90
2023-01-19T01:05:58.632Z,13.90
2023-01-19T01:08:25.871Z,13.80
2023-01-19T01:10:53.192Z,13.80
2023-01-19T01:13:24.197Z,13.80
2023-01-19T01:15:54.868Z,13.80
2023-01-19T01:18:22.813Z,13.80
2023-01-19T01:20:50.417Z,13.80
2023-01-19T01:23:22.872Z,13.80
2023-01-19T01:25:50.445Z,13.80
2023-01-19T01:28:17.945Z,13.70
2023-01-19T01:30:45.243Z,13.80
2023-01-19T01:33:12.504Z,13.80
2023-01-19T01:35:39.928Z,13.80
2023-01-19T01:38:07.725Z,13.70
2023-01-19T01:40:34.958Z,13.80
2023-01-19T01:43:03.239Z,13.80
2023-01-19T01:45:41.692Z,13.70
2023-01-19T01:48:31.161Z,13.70
2023-01-19T01:51:23.193Z,13.70
2023-01-19T01:54:15.040Z,13.70
2023-01-19T01:56:50.813Z,13.80
2023-01-19T01:59:43.165Z,13.70
2023-01-19T02:02:34.054Z,13.80
2023-01-19T02:05:10.486Z,13.80
2023-01-19T02:08:30.891Z,13.80
2023-01-19T02:11:17.297Z,13.80
2023-01-19T02:13:51.701Z,13.90
2023-01-19T02:16:19.133Z,13.90
2023-01-19T02:18:46.914Z,13.90
2023-01-19T02:21:27.162Z,13.90
2023-01-19T02:23:56.633Z,14.00
2023-01-19T02:26:36.896Z,14.00
2023-01-19T02:29:12.989Z,14.00
2023-01-19T02:31:41.374Z,13.90
2023-01-19T02:34:11.366Z,13.90
2023-01-19T02:36:49.252Z,14.00
2023-01-19T02:39:20.383Z,14.10
2023-01-19T02:41:53.820Z,14.00
2023-01-19T02:44:24.551Z,14.00
2023-01-19T02:46:55.070Z,14.00
2023-01-19T02:49:22.413Z,14.10
2023-01-19T02:51:49.979Z,14.10
2023-01-19T02:54:26.145Z,14.10
2023-01-19T02:57:23.859Z,14.10
2023-01-19T03:00:25.394Z,13.90
2023-01-19T03:02:59.101Z,13.90
2023-01-19T03:05:52.471Z,13.90
2023-01-19T03:09:01.104Z,13.90
2023-01-19T03:11:35.429Z,14.00
2023-01-19T03:14:12.238Z,14.00
2023-01-19T03:16:56.077Z,14.00
2023-01-19T03:19:32.979Z,14.00
2023-01-19T03:22:14.269Z,14.00
2023-01-19T03:24:45.575Z,13.80
2023-01-19T03:27:18.409Z,13.80
2023-01-19T03:29:51.708Z,13.70
2023-01-19T03:32:23.156Z,13.70
2023-01-19T03:34:51.861Z,13.60
2023-01-19T03:37:21.430Z,13.70
2023-01-19T03:39:49.411Z,13.90
2023-01-19T03:42:18.523Z,13.80
2023-01-19T03:44:46.722Z,13.60
2023-01-19T03:47:15.393Z,13.50
2023-01-19T03:49:44.597Z,13.40
2023-01-19T03:52:13.307Z,13.40
2023-01-19T03:54:41.366Z,13.30
2023-01-19T03:57:08.784Z,13.20
2023-01-19T03:59:36.743Z,13.30
2023-01-19T04:02:04.306Z,13.30
2023-01-19T04:04:31.641Z,13.20
2023-01-19T04:06:58.839Z,13.20
2023-01-19T04:09:26.284Z,13.20
2023-01-19T04:11:53.590Z,13.20
2023-01-19T04:14:20.811Z,13.10
2023-01-19T04:16:47.999Z,13.10
2023-01-19T04:19:15.379Z,13.10
2023-01-19T04:21:42.903Z,13.00
2023-01-19T04:24:11.025Z,13.10
2023-01-19T04:26:38.448Z,13.20
2023-01-19T04:29:05.919Z,13.20
2023-01-19T04:31:35.733Z,13.20
2023-01-19T04:34:04.011Z,13.20
2023-01-19T04:36:31.619Z,13.20
2023-01-19T04:38:58.700Z,13.10
2023-01-19T04:41:26.043Z,13.20
2023-01-19T04:43:53.436Z,13.20
2023-01-19T04:46:27.275Z,13.10
2023-01-19T04:48:54.722Z,13.10
2023-01-19T04:51:22.613Z,13.10
2023-01-19T04:53:49.946Z,13.10
2023-01-19T04:56:17.233Z,13.10
2023-01-19T04:58:44.774Z,13.00
2023-01-19T05:01:12.053Z,13.10
2023-01-19T05:03:40.703Z,13.00
2023-01-19T05:06:07.981Z,13.10
2023-01-19T05:08:35.360Z,13.10
2023-01-19T05:11:03.056Z,13.10
2023-01-19T05:13:30.321Z,13.20
2023-01-19T05:15:57.570Z,13.20
2023-01-19T05:18:25.106Z,13.20
2023-01-19T05:20:52.506Z,13.20
2023-01-19T05:23:19.712Z,13.30
2023-01-19T05:25:47.576Z,13.20
2023-01-19T05:28:15.672Z,13.20
2023-01-19T05:30:43.448Z,13.10
2023-01-19T05:33:10.737Z,13.20
2023-01-19T05:35:38.147Z,13.30
2023-01-19T05:38:05.341Z,13.40
2023-01-19T05:40:33.065Z,13.30
2023-01-19T05:43:01.644Z,13.40
2023-01-19T05:45:29.425Z,13.50
2023-01-19T05:47:56.681Z,13.40
2023-01-19T05:50:23.908Z,13.40
2023-01-19T05:52:53.727Z,13.40
2023-01-19T05:55:22.120Z,13.20
2023-01-19T05:57:49.515Z,13.20
2023-01-19T06:00:17.533Z,13.20
2023-01-19T06:02:45.373Z,13.40
2023-01-19T06:05:12.554Z,13.30
2023-01-19T06:07:39.771Z,13.40
2023-01-19T06:10:08.009Z,13.40
2023-01-19T06:12:35.264Z,13.30
2023-01-19T06:15:02.598Z,13.20
2023-01-19T06:17:31.782Z,13.30
2023-01-19T06:19:59.072Z,13.40
2023-01-19T06:22:26.462Z,13.50
2023-01-19T06:24:53.657Z,13.50
2023-01-19T06:27:20.759Z,13.40
2023-01-19T06:29:47.903Z,13.40
2023-01-19T06:32:15.009Z,13.40
2023-01-19T06:34:43.840Z,13.50
2023-01-19T06:37:11.851Z,13.50
2023-01-19T06:39:41.155Z,13.50
2023-01-19T06:42:09.001Z,13.50
2023-01-19T06:44:36.254Z,13.50
2023-01-19T06:47:15.417Z,13.50
2023-01-19T06:49:43.469Z,13.50
2023-01-19T06:52:18.433Z,13.60
2023-01-19T06:54:46.192Z,13.60
2023-01-19T06:57:14.364Z,13.60
2023-01-19T06:59:42.171Z,13.60
2023-01-19T07:02:26.240Z,13.60
2023-01-19T07:04:55.895Z,13.60
2023-01-19T07:07:23.065Z,13.70
2023-01-19T07:09:50.264Z,13.80
2023-01-19T07:12:21.587Z,13.90
2023-01-19T07:14:52.535Z,13.90
2023-01-19T07:17:20.247Z,13.90
2023-01-19T07:19:47.462Z,13.90
2023-01-19T07:22:14.610Z,14.00
2023-01-19T07:24:41.768Z,14.00
2023-01-19T07:27:09.224Z,14.00
2023-01-19T07:29:36.412Z,14.00
2023-01-19T07:32:03.648Z,14.00
2023-01-19T07:34:31.336Z,14.10
2023-01-19T07:36:58.488Z,14.10
2023-01-19T07:39:25.630Z,14.10
2023-01-19T07:41:53.009Z,14.10
2023-01-19T07:44:20.173Z,14.20
2023-01-19T07:46:47.400Z,14.30
2023-01-19T07:49:14.497Z,14.40
2023-01-19T07:51:41.707Z,14.30
2023-01-19T07:54:08.801Z,14.30
2023-01-19T07:56:36.161Z,14.30
2023-01-19T07:59:03.741Z,14.40
2023-01-19T08:01:31.716Z,14.40
2023-01-19T08:03:59.022Z,14.40
2023-01-19T08:06:35.186Z,14.40
2023-01-19T08:09:05.610Z,14.50
2023-01-19T08:11:33.539Z,14.60
2023-01-19T08:14:01.109Z,14.60
2023-01-19T08:16:28.301Z,14.70
2023-01-19T08:18:55.504Z,14.70
2023-01-19T08:21:22.900Z,14.90
2023-01-19T08:23:54.410Z,15.00
2023-01-19T08:26:33.371Z,15.10
2023-01-19T08:29:06.045Z,15.30
2023-01-19T08:31:33.277Z,15.40
2023-01-19T08:34:00.564Z,15.40
2023-01-19T08:36:27.956Z,15.60
2023-01-19T08:38:55.133Z,15.70
2023-01-19T08:41:22.481Z,15.70
2023-01-19T08:43:50.806Z,15.60
2023-01-19T08:46:20.916Z,15.60
2023-01-19T08:48:48.890Z,15.60
2023-01-19T08:51:17.060Z,15.50
2023-01-19T08:53:44.306Z,15.50
2023-01-19T08:56:13.943Z,15.40
2023-01-19T08:58:43.246Z,15.40
2023-01-19T09:01:14.804Z,15.40
2023-01-19T09:03:42.092Z,15.40
2023-01-19T09:06:11.039Z,15.40
2023-01-19T09:08:38.541Z,15.40
2023-01-19T09:11:11.211Z,15.40
2023-01-19T09:13:38.754Z,15.60
2023-01-19T09:16:11.649Z,15.60
2023-01-19T09:18:39.458Z,15.70
2023-01-19T09:21:06.983Z,15.70
2023-01-19T09:23:34.556Z,15.70
2023-01-19T09:26:03.613Z,15.80
2023-01-19T09:28:30.936Z,15.90
2023-01-19T09:30:58.771Z,15.90
2023-01-19T09:33:25.969Z,15.90
2023-01-19T09:35:53.194Z,15.80
2023-01-19T09:38:20.738Z,15.80
2023-01-19T09:40:53.312Z,15.80
2023-01-19T09:43:39.122Z,15.90
2023-01-19T09:46:24.722Z,15.90
2023-01-19T09:48:54.196Z,16.00
2023-01-19T09:51:26.339Z,15.90
2023-01-19T09:54:08.239Z,16.00
2023-01-19T09:56:36.020Z,16.20
2023-01-19T09:59:21.957Z,16.10
2023-01-19T10:02:18.911Z,16.10
2023-01-19T10:04:52.089Z,16.00
2023-01-19T10:07:35.048Z,16.00
2023-01-19T10:10:14.523Z,15.90
2023-01-19T10:13:10.887Z,15.90
2023-01-19T10:16:07.724Z,15.90
2023-01-19T10:18:51.993Z,16.00
2023-01-19T10:21:38.639Z,16.00
2023-01-19T10:24:21.180Z,15.90
2023-01-19T10:27:01.418Z,15.90
2023-01-19T10:29:33.600Z,16.00
2023-01-19T10:32:20.359Z,16.00
2023-01-19T10:34:50.822Z,16.10
2023-01-19T10:37:18.079Z,16.20
2023-01-19T10:39:58.598Z,16.10
2023-01-19T10:42:30.658Z,16.10
2023-01-19T10:44:58.138Z,16.10
2023-01-19T10:47:33.670Z,16.10
2023-01-19T10:50:06.511Z,16.10
2023-01-19T10:52:39.869Z,16.10
2023-01-19T10:55:20.323Z,16.20
2023-01-19T10:57:52.064Z,16.20
2023-01-19T11:00:40.776Z,16.30
2023-01-19T11:03:30.928Z,16.30
2023-01-19T11:06:31.822Z,16.30
2023-01-19T11:09:31.422Z,16.40
2023-01-19T11:11:58.814Z,16.40
2023-01-19T11:14:30.924Z,16.30
2023-01-19T11:16:59.076Z,16.30
2023-01-19T11:19:31.956Z,16.30
2023-01-19T11:22:34.425Z,16.30
2023-01-19T11:25:03.912Z,16.30
2023-01-19T11:27:34.743Z,16.30
2023-01-19T11:30:17.656Z,16.30
2023-01-19T11:32:45.889Z,16.30
2023-01-19T11:35:37.723Z,16.30
2023-01-19T11:38:15.798Z,16.30
2023-01-19T11:40:51.031Z,16.30
2023-01-19T11:43:20.132Z,16.30
2023-01-19T11:45:49.859Z,16.40
2023-01-19T11:48:30.040Z,16.30
2023-01-19T11:51:00.184Z,16.30
2023-01-19T11:53:33.712Z,16.40
2023-01-19T11:56:10.279Z,16.40
2023-01-19T11:58:47.141Z,16.50
2023-01-19T12:01:21.229Z,16.50
2023-01-19T12:04:07.707Z,16.50
2023-01-19T12:06:38.541Z,16.40
2023-01-19T12:09:43.562Z,16.40
2023-01-19T12:12:25.646Z,16.30
2023-01-19T12:15:11.755Z,16.30
2023-01-19T12:17:47.142Z,16.30
2023-01-19T12:20:47.302Z,16.30
2023-01-19T12:23:22.237Z,16.30
2023-01-19T12:26:01.317Z,16.30
2023-01-19T12:28:37.288Z,16.40
2023-01-19T12:31:04.832Z,16.40
2023-01-19T12:33:38.060Z,16.30
2023-01-19T12:36:09.917Z,16.20
2023-01-19T12:38:53.204Z,16.20
2023-01-19T12:41:25.314Z,16.10
2023-01-19T12:44:19.435Z,16.10
2023-01-19T12:46:51.617Z,16.00
2023-01-19T12:49:24.908Z,16.00
2023-01-19T12:51:56.148Z,16.00
2023-01-19T12:54:31.848Z,16.00
2023-01-19T12:57:03.793Z,15.90
2023-01-19T12:59:36.114Z,15.90
2023-01-19T13:02:18.719Z,15.90
2023-01-19T13:05:24.911Z,15.90
2023-01-19T13:08:07.317Z,15.90
2023-01-19T13:10:59.429Z,15.80
2023-01-19T13:13:32.529Z,15.80
2023-01-19T13:16:19.812Z,15.80
2023-01-19T13:18:51.649Z,15.70
2023-01-19T13:21:39.240Z,15.70
2023-01-19T13:24:09.128Z,15.80
2023-01-19T13:26:40.051Z,15.70
2023-01-19T13:29:08.863Z,15.70
2023-01-19T13:31:38.745Z,15.70
2023-01-19T13:34:13.657Z,15.70
2023-01-19T13:36:46.044Z,15.70
2023-01-19T13:39:18.794Z,15.70
2023-01-19T13:41:47.254Z,15.70
2023-01-19T13:44:35.882Z,15.70
2023-01-19T13:47:05.818Z,15.70
2023-01-19T13:49:38.861Z,15.70
2023-01-19T13:52:14.965Z,15.80
2023-01-19T13:54:50.417Z,15.80
2023-01-19T13:57:41.164Z,15.80
2023-01-19T14:00:08.544Z,15.80
2023-01-19T14:02:35.875Z,15.80
2023-01-19T14:05:30.211Z,15.70
2023-01-19T14:08:03.493Z,15.80
2023-01-19T14:10:33.699Z,15.70
2023-01-19T14:13:05.405Z,15.70
2023-01-19T14:15:35.047Z,15.60
2023-01-19T14:18:12.371Z,15.60
2023-01-19T14:20:39.830Z,15.50
2023-01-19T14:23:27.492Z,15.40
2023-01-19T14:25:55.770Z,15.50
2023-01-19T14:28:35.504Z,15.50
2023-01-19T14:31:18.001Z,15.60
2023-01-19T14:33:47.162Z,15.50
2023-01-19T14:36:16.765Z,15.40
2023-01-19T14:38:46.565Z,15.30
2023-01-19T14:41:28.293Z,15.30
2023-01-19T14:43:57.244Z,15.20
2023-01-19T14:46:26.124Z,15.20
2023-01-19T14:49:00.137Z,15.10
2023-01-19T14:51:28.407Z,15.10
2023-01-19T14:53:58.958Z,15.00
2023-01-19T14:56:30.017Z,14.90
2023-01-19T14:59:01.588Z,14.90
2023-01-19T15:01:29.278Z,14.90
2023-01-19T15:04:00.129Z,14.80
2023-01-19T15:06:27.742Z,14.80
2023-01-19T15:08:55.525Z,14.80
2023-01-19T15:11:24.980Z,14.80
2023-01-19T15:13:52.566Z,14.80
2023-01-19T15:16:20.065Z,14.80
2023-01-19T15:18:47.411Z,14.70
2023-01-19T15:21:20.225Z,14.70
2023-01-19T15:23:47.736Z,14.60
2023-01-19T15:26:26.399Z,14.70
2023-01-19T15:28:56.095Z,14.70
2023-01-19T15:31:25.564Z,14.60
2023-01-19T15:33:52.695Z,14.60
2023-01-19T15:36:22.106Z,14.60
2023-01-19T15:38:54.748Z,14.60
2023-01-19T15:41:23.595Z,14.60
2023-01-19T15:43:51.373Z,14.60
2023-01-19T15:46:22.739Z,14.50
2023-01-19T15:48:53.084Z,14.60
2023-01-19T15:51:23.374Z,14.60
2023-01-19T15:53:51.006Z,14.70
2023-01-19T15:56:24.798Z,14.60
2023-01-19T15:58:53.156Z,14.50
2023-01-19T16:01:30.837Z,14.40
2023-01-19T16:04:04.319Z,14.40
2023-01-19T16:06:32.585Z,14.40
2023-01-19T16:09:01.511Z,14.50
2023-01-19T16:11:34.837Z,14.30
2023-01-19T16:14:02.485Z,14.10
2023-01-19T16:16:30.032Z,13.80
2023-01-19T16:18:57.448Z,13.60
2023-01-19T16:21:36.412Z,13.50
2023-01-19T16:24:03.757Z,13.60
2023-01-19T16:26:34.661Z,13.60
2023-01-19T16:29:08.890Z,13.60
2023-01-19T16:31:40.292Z,13.60
2023-01-19T16:34:08.266Z,13.70
2023-01-19T16:36:37.105Z,13.70
2023-01-19T16:39:10.863Z,13.60
2023-01-19T16:41:38.073Z,13.50
2023-01-19T16:44:06.459Z,13.60
2023-01-19T16:46:37.113Z,13.50
2023-01-19T16:49:05.545Z,13.50
2023-01-19T16:51:36.423Z,13.70
2023-01-19T16:54:08.194Z,13.70
2023-01-19T16:56:37.125Z,13.70
2023-01-19T16:59:06.562Z,13.60
2023-01-19T17:01:33.966Z,13.40
2023-01-19T17:04:01.206Z,13.30
2023-01-19T17:06:30.312Z,13.30
2023-01-19T17:08:58.118Z,13.40
2023-01-19T17:11:30.694Z,13.50
2023-01-19T17:14:01.055Z,13.50
2023-01-19T17:16:29.234Z,13.30
2023-01-19T17:18:58.354Z,13.30
2023-01-19T17:21:25.943Z,13.00
2023-01-19T17:23:54.943Z,12.80
2023-01-19T17:26:25.301Z,12.90
2023-01-19T17:28:52.522Z,13.10
2023-01-19T17:31:22.131Z,13.10
2023-01-19T17:33:50.545Z,13.10
2023-01-19T17:36:25.585Z,12.90
2023-01-19T17:38:54.611Z,12.90
2023-01-19T17:41:29.455Z,13.00
2023-01-19T17:44:01.196Z,12.90
2023-01-19T17:46:34.435Z,12.80
2023-01-19T17:49:03.647Z,12.80
2023-01-19T17:51:32.095Z,12.70
2023-01-19T17:53:59.790Z,12.80
2023-01-19T17:56:29.893Z,12.80
2023-01-19T17:58:58.717Z,12.90
2023-01-19T18:01:28.551Z,12.90
2023-01-19T18:04:12.083Z,13.00
2023-01-19T18:06:54.225Z,13.00
2023-01-19T18:09:53.408Z,12.90
2023-01-19T18:12:24.440Z,12.80
2023-01-19T18:15:16.883Z,12.60
2023-01-19T18:18:07.236Z,12.70
2023-01-19T18:21:00.819Z,12.30
2023-01-19T18:23:36.579Z,12.30
2023-01-19T18:32:42.310Z,12.70
2023-01-19T18:38:13.597Z,12.20
2023-01-19T18:41:07.806Z,12.40
2023-01-19T18:43:38.392Z,12.70
2023-01-19T18:46:33.293Z,12.80
2023-01-19T18:49:34.165Z,12.60
2023-01-19T18:52:05.015Z,12.40
2023-01-19T18:54:32.397Z,12.30
2023-01-19T18:57:04.604Z,12.40
2023-01-19T18:59:34.268Z,12.50
2023-01-19T19:02:09.167Z,12.40
2023-01-19T19:04:43.005Z,12.40
2023-01-19T19:07:13.294Z,12.50
2023-01-19T19:09:40.517Z,12.70
2023-01-19T19:12:09.735Z,12.70
2023-01-19T19:14:42.342Z,12.40
2023-01-19T19:17:09.524Z,12.50
2023-01-19T19:19:36.967Z,12.40
2023-01-19T19:22:04.387Z,12.40
2023-01-19T19:24:32.637Z,12.40
2023-01-19T19:26:59.776Z,12.40
2023-01-19T19:29:28.533Z,12.40
2023-01-19T19:31:56.717Z,12.50
2023-01-19T19:34:24.919Z,12.60
2023-01-19T19:36:52.059Z,12.60
2023-01-19T19:39:19.275Z,12.60
2023-01-19T19:41:46.505Z,12.60
2023-01-19T19:44:13.715Z,12.50
2023-01-19T19:46:43.877Z,12.50
2023-01-19T19:49:11.186Z,12.50
2023-01-19T19:51:38.364Z,12.40
2023-01-19T19:54:07.949Z,12.40
2023-01-19T19:56:44.286Z,12.30
2023-01-19T19:59:12.523Z,12.30
2023-01-19T20:01:40.794Z,12.10
2023-01-19T20:04:12.959Z,12.40
2023-01-19T20:06:45.570Z,12.40
2023-01-19T20:09:19.526Z,12.40
2023-01-19T20:12:11.042Z,12.30
2023-01-19T20:14:46.970Z,12.30
2023-01-19T20:17:25.111Z,12.40
2023-01-19T20:19:52.611Z,12.30
2023-01-19T20:22:19.826Z,12.30
2023-01-19T20:24:52.843Z,12.40
2023-01-19T20:27:19.962Z,12.50
2023-01-19T20:29:52.892Z,12.30
2023-01-19T20:32:20.085Z,12.20
2023-01-19T20:34:47.178Z,12.10
2023-01-19T20:37:14.275Z,12.20
2023-01-19T20:39:42.435Z,12.10
2023-01-19T20:42:13.700Z,12.10
2023-01-19T20:44:40.938Z,12.10
2023-01-19T20:47:09.402Z,12.10
2023-01-19T20:49:44.992Z,12.10
2023-01-19T20:52:12.336Z,12.10
2023-01-19T20:54:42.777Z,12.10
2023-01-19T20:57:10.081Z,12.10
2023-01-19T20:59:43.631Z,12.00
2023-01-19T21:02:16.322Z,12.00
2023-01-19T21:04:53.624Z,11.90
2023-01-19T21:07:24.543Z,11.80
2023-01-19T21:09:51.926Z,11.90
2023-01-19T21:12:33.484Z,11.90
2023-01-19T21:15:02.609Z,12.00
2023-01-19T21:17:29.774Z,11.90
2023-01-19T21:19:59.384Z,11.90
2023-01-19T21:22:29.779Z,12.00
2023-01-19T21:24:57.008Z,12.00
2023-01-19T21:27:24.217Z,11.70
2023-01-19T21:30:11.356Z,11.60
2023-01-19T21:32:44.049Z,11.80
2023-01-19T21:35:21.573Z,12.00
2023-01-19T21:38:04.413Z,11.90
2023-01-19T21:40:42.380Z,11.90
2023-01-19T21:43:26.547Z,11.90
2023-01-19T21:46:03.861Z,11.90
2023-01-19T21:48:31.600Z,11.90
2023-01-19T21:51:09.783Z,11.70
2023-01-19T21:53:39.958Z,11.70
2023-01-19T21:56:25.319Z,11.80
2023-01-19T21:59:00.044Z,11.60
2023-01-19T22:01:32.202Z,11.50
2023-01-19T22:04:05.666Z,11.50
2023-01-19T22:06:36.697Z,11.40
2023-01-19T22:09:12.861Z,11.30
2023-01-19T22:11:47.355Z,11.20
2023-01-19T22:14:25.255Z,11.30
2023-01-19T22:17:00.256Z,11.40
2023-01-19T22:19:27.724Z,11.40
2023-01-19T22:22:01.630Z,11.30
2023-01-19T22:24:35.198Z,10.90
2023-01-19T22:27:05.134Z,10.90
2023-01-19T22:29:34.808Z,10.60
2023-01-19T22:32:04.810Z,10.70
2023-01-19T22:34:37.555Z,10.90
2023-01-19T22:37:18.049Z,11.20
2023-01-19T22:39:57.863Z,11.30
2023-01-19T22:42:57.924Z,11.40
2023-01-19T22:45:36.519Z,11.30
2023-01-19T22:48:10.639Z,11.30
2023-01-19T22:50:43.187Z,11.10
2023-01-19T22:53:12.563Z,11.00
2023-01-19T22:55:48.264Z,10.90
2023-01-19T22:58:21.207Z,10.80
2023-01-19T23:00:48.482Z,10.90
2023-01-19T23:03:15.674Z,10.80
2023-01-19T23:05:43.000Z,10.70
2023-01-19T23:08:13.554Z,10.70
2023-01-19T23:10:40.821Z,10.70
2023-01-19T23:13:15.661Z,10.60
2023-01-19T23:15:43.120Z,10.60
2023-01-19T23:18:20.211Z,10.70
2023-01-19T23:20:57.126Z,10.70
2023-01-19T23:23:27.808Z,10.60
2023-01-19T23:26:01.638Z,10.60
2023-01-19T23:28:32.158Z,10.50
2023-01-19T23:30:59.439Z,10.60
2023-01-19T23:33:27.341Z,10.60
2023-01-19T23:35:58.674Z,10.60
2023-01-19T23:38:30.770Z,10.60
2023-01-19T23:40:58.246Z,10.60
2023-01-19T23:43:27.150Z,10.50
2023-01-19T23:45:54.404Z,10.50
2023-01-19T23:48:21.726Z,10.50
2023-01-19T23:50:48.859Z,10.50
2023-01-19T23:53:16.053Z,10.60
2023-01-19T23:55:45.977Z,10.50
2023-01-19T23:58:13.182Z,10.50
